createdAt,value
2019-02-26T00:01:14.400Z,56.60
2019-02-26T00:03:51.225Z,56.80
2019-02-26T00:06:25.391Z,56.90
2019-02-26T00:09:09.544Z,56.90
2019-02-26T00:11:46.068Z,56.60
2019-02-26T00:14:30.466Z,56.90
2019-02-26T00:16:59.406Z,57.30
2019-02-26T00:19:34.607Z,57.30
2019-02-26T00:22:07.237Z,56.70
2019-02-26T00:24:46.611Z,57.10
2019-02-26T00:27:28.189Z,57.00
2019-02-26T00:29:57.859Z,55.20
2019-02-26T00:32:38.339Z,57.20
2019-02-26T00:35:13.797Z,56.90
2019-02-26T00:37:48.799Z,56.80
2019-02-26T00:40:23.492Z,57.00
2019-02-26T00:42:59.561Z,56.80
2019-02-26T00:45:29.485Z,57.00
2019-02-26T00:48:02.801Z,56.80
2019-02-26T00:50:40.931Z,56.50
2019-02-26T00:53:23.548Z,56.70
2019-02-26T00:57:56.749Z,56.80
2019-02-26T00:58:41.542Z,57.10
2019-02-26T01:01:12.152Z,57.60
2019-02-26T01:03:47.117Z,57.60
2019-02-26T01:06:19.337Z,57.60
2019-02-26T01:08:53.652Z,57.70
2019-02-26T01:11:34.570Z,57.40
2019-02-26T01:14:09.738Z,57.70
2019-02-26T01:16:41.475Z,57.60
2019-02-26T01:19:15.277Z,57.30
2019-02-26T01:21:48.701Z,57.00
2019-02-26T01:24:21.321Z,56.90
2019-02-26T01:26:52.081Z,57.20
2019-02-26T01:29:32.434Z,57.20
2019-02-26T01:32:13.280Z,57.80
2019-02-26T01:34:47.292Z,57.20
2019-02-26T01:37:21.610Z,57.10
2019-02-26T01:39:53.879Z,57.20
2019-02-26T01:42:35.212Z,57.10
2019-02-26T01:45:09.271Z,57.30
2019-02-26T01:47:40.440Z,57.30
2019-02-26T01:50:16.039Z,57.70
2019-02-26T01:52:49.982Z,57.80
2019-02-26T01:55:23.559Z,57.60
2019-02-26T01:57:58.551Z,57.80
2019-02-26T02:00:30.155Z,58.10
2019-02-26T02:03:03.394Z,58.30
2019-02-26T02:05:39.243Z,58.20
2019-02-26T02:08:13.252Z,58.20
2019-02-26T02:10:44.108Z,58.10
2019-02-26T02:13:15.170Z,57.90
2019-02-26T02:15:49.861Z,58.40
2019-02-26T02:18:29.359Z,58.10
2019-02-26T02:21:07.892Z,58.10
2019-02-26T02:23:39.680Z,58.30
2019-02-26T02:26:15.678Z,58.40
2019-02-26T02:28:46.890Z,58.70
2019-02-26T02:31:17.713Z,58.40
2019-02-26T02:33:53.216Z,58.30
2019-02-26T02:36:29.275Z,58.20
2019-02-26T02:39:01.591Z,58.40
2019-02-26T02:41:34.839Z,58.50
2019-02-26T02:44:06.260Z,58.60
2019-02-26T02:46:39.268Z,58.00
2019-02-26T02:49:13.280Z,56.70
2019-02-26T02:51:49.474Z,57.60
2019-02-26T02:54:30.063Z,58.60
2019-02-26T02:57:05.391Z,59.00
2019-02-26T02:59:42.254Z,59.10
2019-02-26T03:02:17.404Z,58.90
2019-02-26T03:04:51.772Z,59.10
2019-02-26T03:07:24.528Z,59.20
2019-02-26T03:09:57.879Z,59.20
2019-02-26T03:12:36.582Z,58.70
2019-02-26T03:15:10.024Z,58.70
2019-02-26T03:17:42.826Z,58.40
2019-02-26T03:20:19.085Z,58.50
2019-02-26T03:22:57.434Z,58.60
2019-02-26T03:25:29.129Z,58.50
2019-02-26T03:28:00.620Z,58.40
2019-02-26T03:30:40.600Z,58.40
2019-02-26T03:33:18.381Z,58.50
2019-02-26T03:35:50.826Z,58.80
2019-02-26T03:38:26.238Z,58.90
2019-02-26T03:41:00.808Z,58.90
2019-02-26T03:43:41.807Z,59.00
2019-02-26T03:46:13.311Z,59.00
2019-02-26T03:48:46.345Z,59.40
2019-02-26T03:51:20.219Z,59.50
2019-02-26T03:53:51.804Z,59.30
2019-02-26T03:56:24.897Z,59.40
2019-02-26T03:59:03.167Z,59.40
2019-02-26T04:01:32.865Z,59.80
2019-02-26T04:04:07.449Z,60.00
2019-02-26T04:06:40.556Z,60.30
2019-02-26T04:09:13.685Z,60.10
2019-02-26T04:11:47.388Z,59.80
2019-02-26T04:14:19.942Z,59.90
2019-02-26T04:16:50.532Z,59.90
2019-02-26T04:19:26.772Z,59.50
2019-02-26T04:22:30.938Z,59.80
2019-02-26T04:25:08.245Z,60.30
2019-02-26T04:28:11.449Z,60.00
2019-02-26T04:31:02.876Z,60.60
2019-02-26T04:34:01.139Z,60.80
2019-02-26T04:36:50.090Z,60.80
2019-02-26T04:39:53.491Z,59.40
2019-02-26T04:42:47.109Z,61.00
2019-02-26T04:45:21.337Z,62.10
2019-02-26T04:48:06.301Z,60.80
2019-02-26T04:50:38.731Z,60.60
2019-02-26T04:53:11.094Z,60.50
2019-02-26T04:55:44.871Z,60.20
2019-02-26T04:58:19.760Z,60.60
2019-02-26T05:00:48.867Z,60.70
2019-02-26T05:03:20.160Z,60.50
2019-02-26T05:05:59.180Z,60.70
2019-02-26T05:08:32.263Z,60.60
2019-02-26T05:11:04.033Z,60.50
2019-02-26T05:13:34.965Z,60.40
2019-02-26T05:16:08.690Z,59.40
2019-02-26T05:18:45.891Z,60.10
2019-02-26T05:21:18.945Z,60.30
2019-02-26T05:23:49.517Z,60.80
2019-02-26T05:26:22.540Z,60.90
2019-02-26T05:28:55.547Z,61.40
2019-02-26T05:31:32.519Z,62.10
2019-02-26T05:34:00.017Z,62.30
2019-02-26T05:36:37.283Z,61.90
2019-02-26T05:39:07.322Z,61.90
2019-02-26T05:41:40.505Z,62.30
2019-02-26T05:44:14.622Z,62.70
2019-02-26T05:46:54.021Z,65.30
2019-02-26T05:49:33.811Z,63.40
2019-02-26T05:52:06.903Z,63.50
2019-02-26T05:54:36.218Z,62.40
2019-02-26T05:57:27.041Z,63.30
2019-02-26T05:59:50.214Z,63.30
2019-02-26T06:02:24.725Z,63.20
2019-02-26T06:04:58.247Z,62.50
2019-02-26T06:07:39.426Z,62.50
2019-02-26T06:10:13.355Z,62.70
2019-02-26T06:12:46.833Z,62.00
2019-02-26T06:15:25.618Z,62.50
2019-02-26T06:17:55.993Z,62.10
2019-02-26T06:20:28.796Z,61.40
2019-02-26T06:23:01.806Z,61.30
2019-02-26T06:25:32.597Z,60.70
2019-02-26T06:28:07.014Z,60.90
2019-02-26T06:30:42.186Z,60.70
2019-02-26T06:33:14.060Z,59.80
2019-02-26T06:35:45.272Z,60.90
2019-02-26T06:38:16.698Z,62.10
2019-02-26T06:40:51.297Z,62.50
2019-02-26T06:43:26.055Z,60.30
2019-02-26T06:45:57.548Z,60.00
2019-02-26T06:48:32.260Z,60.10
2019-02-26T06:51:04.707Z,60.40
2019-02-26T06:53:36.898Z,60.70
2019-02-26T06:56:25.463Z,61.00
2019-02-26T06:59:21.818Z,60.80
2019-02-26T07:01:55.612Z,60.60
2019-02-26T07:04:27.041Z,60.60
2019-02-26T07:06:59.458Z,60.10
2019-02-26T07:09:36.874Z,60.60
2019-02-26T07:12:16.912Z,60.70
2019-02-26T07:14:48.376Z,60.50
2019-02-26T07:17:24.324Z,60.70
2019-02-26T07:19:59.920Z,60.60
2019-02-26T07:22:35.939Z,58.30
2019-02-26T07:25:13.857Z,60.10
2019-02-26T07:27:45.468Z,60.70
2019-02-26T07:30:17.444Z,59.90
2019-02-26T07:32:54.766Z,60.00
2019-02-26T07:35:32.672Z,61.90
2019-02-26T07:38:03.540Z,60.10
2019-02-26T07:40:35.905Z,60.20
2019-02-26T07:43:11.598Z,60.10
2019-02-26T07:45:40.707Z,60.70
2019-02-26T07:48:16.251Z,60.00
2019-02-26T07:50:50.830Z,60.60
2019-02-26T07:53:22.715Z,61.10
2019-02-26T07:55:56.846Z,61.40
2019-02-26T07:58:33.255Z,61.40
2019-02-26T08:01:01.005Z,61.90
2019-02-26T08:03:32.045Z,61.90
2019-02-26T08:06:04.791Z,61.40
2019-02-26T08:08:40.164Z,61.70
2019-02-26T08:11:14.904Z,61.20
2019-02-26T08:13:46.231Z,61.80
2019-02-26T08:16:18.370Z,61.50
2019-02-26T08:18:52.190Z,61.30
2019-02-26T08:21:36.143Z,61.20
2019-02-26T08:24:17.017Z,61.00
2019-02-26T08:26:49.594Z,60.90
2019-02-26T08:29:23.956Z,60.90
2019-02-26T08:31:57.457Z,61.00
2019-02-26T08:34:29.204Z,61.00
2019-02-26T08:37:11.249Z,60.90
2019-02-26T08:39:43.151Z,60.80
2019-02-26T08:42:14.232Z,60.30
2019-02-26T08:44:48.279Z,60.60
2019-02-26T08:47:19.143Z,60.90
2019-02-26T08:49:48.508Z,60.60
2019-02-26T08:52:21.894Z,60.50
2019-02-26T08:54:52.203Z,60.40
2019-02-26T08:57:30.540Z,60.30
2019-02-26T09:00:07.855Z,59.40
2019-02-26T09:02:53.664Z,59.70
2019-02-26T09:05:25.316Z,59.40
2019-02-26T09:07:57.927Z,59.70
2019-02-26T09:10:29.106Z,60.60
2019-02-26T09:13:06.140Z,63.50
2019-02-26T09:15:43.182Z,64.30
2019-02-26T09:18:20.300Z,64.50
2019-02-26T09:20:51.416Z,63.30
2019-02-26T09:23:23.459Z,63.90
2019-02-26T09:25:54.887Z,63.60
2019-02-26T09:28:27.082Z,63.30
2019-02-26T09:31:01.935Z,62.80
2019-02-26T09:33:32.676Z,62.30
2019-02-26T09:36:10.505Z,62.50
2019-02-26T09:38:44.220Z,62.70
2019-02-26T09:41:14.217Z,62.70
2019-02-26T09:43:48.129Z,63.30
2019-02-26T09:46:19.078Z,63.50
2019-02-26T09:48:50.456Z,63.00
2019-02-26T09:51:20.464Z,62.90
2019-02-26T09:53:54.798Z,62.80
2019-02-26T09:56:30.099Z,62.30
2019-02-26T09:58:59.642Z,61.20
2019-02-26T10:01:30.611Z,60.80
2019-02-26T10:04:05.472Z,59.90
2019-02-26T10:06:40.676Z,58.80
2019-02-26T10:09:11.280Z,57.90
2019-02-26T10:11:51.577Z,57.00
2019-02-26T10:14:26.361Z,56.40
2019-02-26T10:16:58.297Z,55.80
2019-02-26T10:19:27.935Z,55.20
2019-02-26T10:22:00.220Z,54.30
2019-02-26T10:24:30.199Z,53.80
2019-02-26T10:27:06.016Z,53.20
2019-02-26T10:29:45.157Z,53.10
2019-02-26T10:32:15.629Z,52.80
2019-02-26T10:34:49.762Z,51.70
2019-02-26T10:37:20.544Z,51.40
2019-02-26T10:39:54.938Z,50.70
2019-02-26T10:42:39.448Z,50.80
2019-02-26T10:45:03.528Z,49.60
2019-02-26T10:47:38.814Z,49.10
2019-02-26T10:50:19.336Z,48.60
2019-02-26T10:52:52.725Z,48.70
2019-02-26T10:55:33.316Z,47.80
2019-02-26T10:58:10.037Z,49.90
2019-02-26T11:00:46.435Z,48.60
2019-02-26T11:03:15.011Z,48.30
2019-02-26T11:05:46.007Z,48.10
2019-02-26T11:08:20.805Z,48.30
2019-02-26T11:10:57.543Z,48.30
2019-02-26T11:13:28.492Z,48.60
2019-02-26T11:16:03.531Z,48.80
2019-02-26T11:18:39.827Z,49.50
2019-02-26T11:21:11.097Z,49.40
2019-02-26T11:23:43.969Z,48.70
2019-02-26T11:26:18.098Z,48.50
2019-02-26T11:28:47.918Z,48.70
2019-02-26T11:31:24.454Z,48.30
2019-02-26T11:33:52.061Z,49.50
2019-02-26T11:36:28.184Z,49.40
2019-02-26T11:39:02.270Z,49.40
2019-02-26T11:41:38.500Z,49.70
2019-02-26T11:44:20.146Z,50.30
2019-02-26T11:46:51.355Z,49.80
2019-02-26T11:49:31.069Z,49.30
2019-02-26T11:52:04.395Z,49.70
2019-02-26T11:54:39.802Z,49.70
2019-02-26T11:57:11.185Z,49.60
2019-02-26T11:59:43.985Z,50.00
2019-02-26T12:02:14.328Z,49.60
2019-02-26T12:04:47.362Z,49.20
2019-02-26T12:07:22.221Z,49.60
2019-02-26T12:09:57.871Z,49.10
2019-02-26T12:12:25.829Z,48.80
2019-02-26T12:14:57.775Z,48.60
2019-02-26T12:17:27.097Z,48.70
2019-02-26T12:20:00.462Z,48.70
2019-02-26T12:22:37.260Z,49.10
2019-02-26T12:25:15.598Z,49.20
2019-02-26T12:27:45.645Z,49.40
2019-02-26T12:30:21.510Z,49.20
2019-02-26T12:32:55.080Z,48.50
2019-02-26T12:35:24.068Z,48.10
2019-02-26T12:37:56.574Z,47.90
2019-02-26T12:40:31.411Z,48.10
2019-02-26T12:43:07.921Z,48.20
2019-02-26T12:45:38.762Z,48.10
2019-02-26T12:48:15.655Z,47.40
2019-02-26T12:50:42.964Z,47.20
2019-02-26T12:53:15.197Z,48.20
2019-02-26T12:55:44.476Z,48.40
2019-02-26T12:58:18.700Z,49.00
2019-02-26T13:00:47.442Z,49.40
2019-02-26T13:03:22.607Z,48.80
2019-02-26T13:05:56.466Z,48.80
2019-02-26T13:08:32.016Z,49.00
2019-02-26T13:11:04.248Z,48.80
2019-02-26T13:13:34.340Z,48.90
2019-02-26T13:16:06.779Z,49.20
2019-02-26T13:18:39.990Z,48.90
2019-02-26T13:21:13.471Z,48.20
2019-02-26T13:23:50.927Z,47.00
2019-02-26T13:26:36.290Z,47.70
2019-02-26T13:29:09.631Z,47.90
2019-02-26T13:31:56.198Z,47.10
2019-02-26T13:34:24.811Z,47.50
2019-02-26T13:37:07.864Z,47.10
2019-02-26T13:39:38.457Z,47.70
2019-02-26T13:42:10.056Z,47.70
2019-02-26T13:44:42.219Z,47.70
2019-02-26T13:47:20.588Z,47.50
2019-02-26T13:49:52.019Z,47.90
2019-02-26T13:52:21.894Z,47.20
2019-02-26T13:54:59.664Z,46.30
2019-02-26T13:57:35.297Z,45.70
2019-02-26T14:00:11.584Z,45.30
2019-02-26T14:02:45.183Z,45.00
2019-02-26T14:05:16.060Z,44.60
2019-02-26T14:07:51.476Z,45.30
2019-02-26T14:10:35.225Z,45.00
2019-02-26T14:13:28.730Z,45.40
2019-02-26T14:16:01.449Z,45.50
2019-02-26T14:18:30.521Z,45.60
2019-02-26T14:21:04.560Z,45.60
2019-02-26T14:23:35.155Z,45.00
2019-02-26T14:26:06.609Z,45.20
2019-02-26T14:28:42.188Z,45.40
2019-02-26T14:31:20.073Z,45.00
2019-02-26T14:33:51.981Z,44.20
2019-02-26T14:36:33.951Z,44.00
2019-02-26T14:39:13.893Z,44.20
2019-02-26T14:41:46.387Z,44.60
2019-02-26T14:44:16.664Z,44.30
2019-02-26T14:46:45.966Z,43.70
2019-02-26T14:49:16.141Z,43.90
2019-02-26T14:51:48.677Z,44.00
2019-02-26T14:54:18.278Z,43.90
2019-02-26T14:56:48.389Z,43.60
2019-02-26T14:59:22.297Z,43.40
2019-02-26T15:01:51.632Z,43.00
2019-02-26T15:04:38.646Z,43.10
2019-02-26T15:07:11.400Z,43.20
2019-02-26T15:09:44.639Z,43.30
2019-02-26T15:12:16.673Z,43.20
2019-02-26T15:14:48.977Z,43.10
2019-02-26T15:17:54.895Z,43.20
2019-02-26T15:20:30.709Z,43.30
2019-02-26T15:23:14.564Z,43.00
2019-02-26T15:25:47.122Z,42.90
2019-02-26T15:28:34.163Z,43.20
2019-02-26T15:31:49.228Z,41.00
2019-02-26T15:34:23.165Z,43.00
2019-02-26T15:37:28.818Z,43.40
2019-02-26T15:40:07.674Z,43.40
2019-02-26T15:43:11.907Z,43.40
2019-02-26T15:45:52.442Z,43.30
2019-02-26T15:48:52.797Z,43.40
2019-02-26T15:51:26.964Z,43.50
2019-02-26T15:54:50.482Z,43.90
2019-02-26T15:57:22.477Z,43.90
2019-02-26T16:00:29.690Z,43.90
2019-02-26T16:03:03.248Z,44.40
2019-02-26T16:06:12.317Z,44.20
2019-02-26T16:08:44.290Z,44.10
2019-02-26T16:12:13.148Z,44.40
2019-02-26T16:14:45.079Z,44.70
2019-02-26T16:17:58.177Z,46.70
2019-02-26T16:20:27.095Z,45.10
2019-02-26T16:23:26.640Z,45.00
2019-02-26T16:25:59.427Z,45.10
2019-02-26T16:29:00.833Z,45.30
2019-02-26T16:31:29.562Z,45.50
2019-02-26T16:34:44.797Z,45.30
2019-02-26T16:37:16.844Z,44.20
2019-02-26T16:40:32.253Z,45.10
2019-02-26T16:46:49.776Z,45.00
2019-02-26T16:49:35.788Z,45.10
2019-02-26T16:52:05.703Z,45.30
2019-02-26T16:54:38.670Z,45.50
2019-02-26T16:57:47.105Z,45.60
2019-02-26T17:00:29.197Z,46.00
2019-02-26T17:03:27.092Z,45.90
2019-02-26T17:06:01.088Z,46.70
2019-02-26T17:09:07.867Z,46.80
2019-02-26T17:11:44.544Z,47.30
2019-02-26T17:14:57.823Z,47.80
2019-02-26T17:17:29.766Z,48.30
2019-02-26T17:20:27.410Z,48.40
2019-02-26T17:22:59.672Z,48.60
2019-02-26T17:26:23.238Z,49.00
2019-02-26T17:28:58.026Z,49.20
2019-02-26T17:31:56.341Z,49.70
2019-02-26T17:34:28.515Z,51.80
2019-02-26T17:37:41.609Z,49.70
2019-02-26T17:40:19.311Z,50.10
2019-02-26T17:43:35.414Z,51.80
2019-02-26T17:46:07.880Z,50.80
2019-02-26T17:49:17.974Z,51.00
2019-02-26T17:51:54.699Z,51.40
2019-02-26T17:54:52.982Z,51.80
2019-02-26T17:57:24.655Z,52.00
2019-02-26T18:00:34.350Z,52.50
2019-02-26T18:03:08.082Z,52.80
2019-02-26T18:06:10.748Z,52.90
2019-02-26T18:08:43.669Z,53.00
2019-02-26T18:11:54.310Z,53.10
2019-02-26T18:14:33.076Z,53.50
2019-02-26T18:17:32.932Z,54.00
2019-02-26T18:20:05.433Z,54.40
2019-02-26T18:23:11.093Z,53.60
2019-02-26T18:25:42.061Z,53.80
2019-02-26T18:29:08.477Z,54.10
2019-02-26T18:31:44.094Z,53.00
2019-02-26T18:34:49.277Z,54.40
2019-02-26T18:37:26.105Z,53.80
2019-02-26T18:40:28.932Z,54.30
2019-02-26T18:42:56.193Z,54.60
2019-02-26T18:46:21.130Z,54.50
2019-02-26T18:48:59.204Z,54.50
2019-02-26T18:52:14.807Z,54.70
2019-02-26T18:54:48.812Z,54.60
2019-02-26T18:58:07.672Z,54.90
2019-02-26T19:00:41.505Z,55.00
2019-02-26T19:03:42.112Z,55.40
2019-02-26T19:06:13.080Z,55.50
2019-02-26T19:09:29.552Z,55.30
2019-02-26T19:12:05.174Z,55.40
2019-02-26T19:15:29.675Z,55.80
2019-02-26T19:18:07.977Z,55.80
2019-02-26T19:21:05.299Z,55.30
2019-02-26T19:23:37.039Z,55.20
2019-02-26T19:26:46.525Z,54.80
2019-02-26T19:29:14.113Z,54.70
2019-02-26T19:32:07.089Z,54.60
2019-02-26T19:34:40.889Z,54.70
2019-02-26T19:37:45.558Z,55.40
2019-02-26T19:40:17.078Z,55.20
2019-02-26T19:43:17.186Z,54.90
2019-02-26T19:45:46.447Z,54.80
2019-02-26T19:48:47.058Z,54.80
2019-02-26T19:51:22.906Z,54.80
2019-02-26T19:54:24.104Z,55.00
2019-02-26T19:56:54.633Z,54.90
2019-02-26T20:00:11.806Z,54.90
2019-02-26T20:02:43.119Z,54.90
2019-02-26T20:06:00.378Z,54.90
2019-02-26T20:08:29.755Z,55.00
2019-02-26T20:11:34.680Z,55.00
2019-02-26T20:14:05.272Z,55.10
2019-02-26T20:17:14.747Z,56.20
2019-02-26T20:19:46.710Z,55.20
2019-02-26T20:22:33.713Z,55.40
2019-02-26T20:25:08.591Z,55.20
2019-02-26T20:28:24.609Z,55.60
2019-02-26T20:30:59.117Z,55.60
2019-02-26T20:34:19.353Z,55.60
2019-02-26T20:36:57.621Z,55.30
2019-02-26T20:40:20.070Z,55.10
2019-02-26T20:43:08.019Z,55.20
2019-02-26T20:46:19.160Z,55.50
2019-02-26T20:48:55.207Z,55.40
2019-02-26T20:51:50.244Z,55.40
2019-02-26T20:54:20.737Z,55.40
2019-02-26T20:57:13.650Z,55.80
2019-02-26T20:59:47.208Z,55.70
2019-02-26T21:03:03.842Z,55.00
2019-02-26T21:05:34.641Z,55.30
2019-02-26T21:08:47.096Z,55.60
2019-02-26T21:11:23.200Z,57.50
2019-02-26T21:14:41.042Z,55.90
2019-02-26T21:17:13.052Z,56.10
2019-02-26T21:20:18.319Z,56.10
2019-02-26T21:23:03.773Z,56.30
2019-02-26T21:26:01.715Z,56.60
2019-02-26T21:28:33.747Z,56.50
2019-02-26T21:32:01.737Z,58.60
2019-02-26T21:34:33.999Z,56.40
2019-02-26T21:38:01.266Z,56.30
2019-02-26T21:40:37.301Z,56.10
2019-02-26T21:43:36.252Z,56.40
2019-02-26T21:46:08.398Z,56.60
2019-02-26T21:51:35.119Z,56.50
2019-02-26T21:57:04.374Z,56.10
2019-02-26T21:59:38.331Z,56.00
2019-02-26T22:02:41.298Z,55.90
2019-02-26T22:05:27.407Z,55.80
2019-02-26T22:10:35.212Z,56.20
2019-02-26T22:13:04.806Z,57.70
2019-02-26T22:15:37.586Z,58.20
2019-02-26T22:18:53.629Z,57.00
2019-02-26T22:21:31.411Z,58.50
2019-02-26T22:24:51.218Z,60.10
2019-02-26T22:27:22.983Z,59.20
2019-02-26T22:37:06.929Z,59.40
2019-02-26T22:39:34.708Z,59.80
2019-02-26T22:42:59.383Z,59.20
2019-02-26T22:45:32.401Z,58.90
2019-02-26T22:48:55.259Z,59.10
2019-02-26T22:51:30.214Z,59.50
2019-02-26T22:54:35.205Z,59.50
2019-02-26T22:57:15.041Z,58.90
2019-02-26T23:00:25.820Z,58.50
2019-02-26T23:02:55.044Z,58.20
2019-02-26T23:06:07.812Z,58.40
2019-02-26T23:08:35.607Z,56.70
2019-02-26T23:11:41.619Z,58.40
2019-02-26T23:14:14.143Z,59.20
2019-02-26T23:19:39.385Z,58.60
2019-02-26T23:23:00.734Z,58.30
2019-02-26T23:25:33.667Z,58.60
2019-02-26T23:28:49.270Z,58.80
2019-02-26T23:31:23.379Z,59.80
2019-02-26T23:33:55.983Z,58.90
2019-02-26T23:36:29.011Z,58.70
2019-02-26T23:39:00.116Z,58.70
2019-02-26T23:41:34.723Z,59.00
2019-02-26T23:48:16.261Z,59.10
2019-02-26T23:50:52.194Z,59.10
2019-02-26T23:53:25.456Z,57.90
2019-02-26T23:56:03.928Z,58.60
2019-02-26T23:58:33.890Z,58.60
